Time;durP1;ratioP1;P1;durP2;ratioP2;P2;SDS_P1;SDS_P2;PMS_P1;PMS_P2;Temp;Humidity;BMP_temperature;BMP_pressure;BME280_temperature;BME280_humidity;BME280_pressure;Samples;Min_cycle;Max_cycle;Signal;HPM_P1;HPM_P2
2022/05/10 00:01:25;;;;;;;18.40;9.67;;;13.00;99.90;;;;;;5029209;28;20221;-62
2022/05/10 00:03:53;;;;;;;17.00;9.90;;;13.00;99.90;;;;;;5026510;28;20200;-61
2022/05/10 00:06:22;;;;;;;20.17;9.97;;;13.00;99.90;;;;;;5032778;28;20193;-61
2022/05/10 00:08:52;;;;;;;20.53;10.30;;;13.00;99.90;;;;;;5030400;28;20214;-61
2022/05/10 00:11:20;;;;;;;21.67;10.40;;;13.00;99.90;;;;;;5017746;28;20200;-61
2022/05/10 00:13:49;;;;;;;22.17;10.30;;;13.10;99.90;;;;;;5029677;28;20276;-61
2022/05/10 00:16:19;;;;;;;19.10;9.97;;;13.10;99.90;;;;;;5010654;28;20201;-61
2022/05/10 00:18:48;;;;;;;18.63;9.67;;;13.10;99.90;;;;;;5037807;28;20233;-61
2022/05/10 00:21:25;;;;;;;19.57;10.03;;;13.10;99.90;;;;;;5026905;28;20271;-61
2022/05/10 00:23:55;;;;;;;23.47;10.77;;;13.10;99.90;;;;;;5028556;28;20238;-61
2022/05/10 00:26:24;;;;;;;17.13;11.27;;;13.00;99.90;;;;;;5030384;28;20252;-61
2022/05/10 00:28:52;;;;;;;16.23;10.43;;;13.00;99.90;;;;;;5034033;28;20215;-62
2022/05/10 00:31:21;;;;;;;19.13;10.63;;;13.00;99.90;;;;;;5028618;28;20641;-62
2022/05/10 00:33:50;;;;;;;18.87;10.23;;;13.00;99.90;;;;;;5028794;28;20319;-61
2022/05/10 00:36:20;;;;;;;20.43;10.47;;;13.00;99.90;;;;;;5026419;28;20261;-61
2022/05/10 00:38:49;;;;;;;19.20;10.90;;;13.00;99.90;;;;;;5026509;28;20650;-61
2022/05/10 00:41:26;;;;;;;23.10;11.47;;;13.00;99.90;;;;;;5028691;28;20217;-61
2022/05/10 00:43:59;;;;;;;23.17;11.60;;;13.00;99.90;;;;;;5027378;28;20181;-61
2022/05/10 00:46:33;;;;;;;26.50;12.13;;;13.00;99.90;;;;;;5027372;28;20669;-61
2022/05/10 00:49:06;;;;;;;20.80;11.17;;;13.10;99.90;;;;;;5030216;28;20647;-62
2022/05/10 00:51:41;;;;;;;19.37;11.57;;;13.10;99.90;;;;;;5029634;28;20189;-61
2022/05/10 00:54:23;;;;;;;21.17;11.37;;;13.20;99.90;;;;;;5027755;28;20199;-61
2022/05/10 00:57:00;;;;;;;23.53;11.40;;;13.20;99.90;;;;;;5025752;28;20652;-61
2022/05/10 00:59:35;;;;;;;15.73;10.67;;;13.20;99.90;;;;;;5029316;28;20239;-61
2022/05/10 01:02:10;;;;;;;28.47;11.93;;;13.20;99.90;;;;;;5040268;28;20692;-62
2022/05/10 01:04:43;;;;;;;22.30;12.00;;;13.20;99.90;;;;;;5029319;28;20627;-61
2022/05/10 01:07:17;;;;;;;23.20;12.00;;;13.20;99.90;;;;;;5031510;28;20258;-61
2022/05/10 01:09:50;;;;;;;25.23;12.23;;;13.20;99.90;;;;;;5029007;28;20224;-61
2022/05/10 01:12:29;;;;;;;25.13;12.20;;;13.20;99.90;;;;;;5029918;28;20201;-61
2022/05/10 01:15:05;;;;;;;21.93;11.77;;;13.20;99.90;;;;;;5025075;28;20646;-61
2022/05/10 01:17:33;;;;;;;25.70;12.67;;;13.20;99.90;;;;;;5025918;28;20247;-61
2022/05/10 01:20:02;;;;;;;26.03;12.00;;;13.20;99.90;;;;;;5035725;28;20255;-61
2022/05/10 01:22:49;;;;;;;25.70;12.03;;;13.20;99.90;;;;;;5023797;28;20221;-61
2022/05/10 01:25:56;;;;;;;21.90;12.73;;;13.30;99.90;;;;;;5036510;28;20197;-61
2022/05/10 01:28:31;;;;;;;24.30;12.43;;;13.30;99.90;;;;;;5024802;28;20738;-61
2022/05/10 01:31:03;;;;;;;30.50;13.10;;;13.40;99.90;;;;;;5026719;28;20681;-61
2022/05/10 01:33:35;;;;;;;22.57;12.03;;;13.40;99.90;;;;;;5022901;28;20283;-61
2022/05/10 01:36:14;;;;;;;29.00;12.17;;;13.40;99.90;;;;;;5027515;28;20202;-62
2022/05/10 01:38:48;;;;;;;21.53;11.90;;;13.50;99.90;;;;;;5027176;28;20186;-61
2022/05/10 01:41:24;;;;;;;19.07;12.63;;;13.50;99.90;;;;;;5029183;28;20217;-61
2022/05/10 01:44:03;;;;;;;27.10;12.50;;;13.60;99.90;;;;;;5028832;28;20662;-61
2022/05/10 01:46:33;;;;;;;23.77;12.33;;;13.60;99.90;;;;;;5021837;28;20666;-61
2022/05/10 01:49:13;;;;;;;30.57;12.67;;;13.60;99.90;;;;;;5028588;28;20190;-61
2022/05/10 01:51:47;;;;;;;23.17;12.53;;;13.70;99.90;;;;;;5028982;28;20189;-61
2022/05/10 01:54:48;;;;;;;20.87;12.37;;;13.70;99.90;;;;;;5012398;28;20213;-61
2022/05/10 01:57:18;;;;;;;26.63;12.40;;;13.70;99.90;;;;;;5028166;28;20292;-61
2022/05/10 01:59:54;;;;;;;25.03;12.47;;;13.80;99.90;;;;;;5039440;28;20267;-61
2022/05/10 02:02:26;;;;;;;24.00;12.97;;;13.80;99.90;;;;;;5034744;28;20213;-61
2022/05/10 02:04:59;;;;;;;23.70;12.67;;;13.80;99.90;;;;;;5029641;28;20309;-61
2022/05/10 02:07:29;;;;;;;27.30;12.63;;;13.80;99.90;;;;;;5035915;28;20227;-61
2022/05/10 02:10:02;;;;;;;23.07;12.23;;;13.80;99.90;;;;;;5030294;28;20702;-61
2022/05/10 02:12:38;;;;;;;23.57;12.93;;;13.80;99.90;;;;;;5030910;28;20198;-61
2022/05/10 02:15:15;;;;;;;25.23;12.77;;;13.80;99.90;;;;;;5037640;28;20192;-61
2022/05/10 02:17:50;;;;;;;27.20;12.93;;;13.90;99.90;;;;;;5010896;28;20316;-61
2022/05/10 02:20:24;;;;;;;24.30;13.07;;;13.90;99.90;;;;;;5040635;28;20229;-61
2022/05/10 02:22:58;;;;;;;25.23;12.93;;;14.00;99.90;;;;;;5015066;28;20574;-61
2022/05/10 02:25:33;;;;;;;26.63;13.37;;;14.00;99.90;;;;;;5035962;28;20622;-62
2022/05/10 02:28:06;;;;;;;29.60;13.87;;;14.10;99.90;;;;;;5032622;28;20634;-61
2022/05/10 02:30:37;;;;;;;21.17;13.00;;;14.10;99.90;;;;;;5034687;28;20654;-61
2022/05/10 02:33:07;;;;;;;22.13;13.23;;;14.10;99.90;;;;;;5030719;28;20198;-61
2022/05/10 02:35:41;;;;;;;22.13;13.00;;;14.20;99.90;;;;;;5032334;28;20195;-61
2022/05/10 02:38:12;;;;;;;24.10;13.53;;;14.10;99.90;;;;;;5032197;28;20550;-61
2022/05/10 02:40:43;;;;;;;23.37;13.63;;;14.10;99.90;;;;;;5038186;28;20201;-61
2022/05/10 02:43:17;;;;;;;27.90;13.33;;;14.10;99.90;;;;;;5029310;28;20292;-61
2022/05/10 02:45:46;;;;;;;23.43;13.30;;;14.20;99.90;;;;;;5029677;28;20198;-61
2022/05/10 02:48:17;;;;;;;26.73;14.67;;;14.20;99.90;;;;;;5029841;28;20205;-61
2022/05/10 02:50:46;;;;;;;25.17;14.37;;;14.20;99.90;;;;;;5029858;28;20698;-61
2022/05/10 02:53:14;;;;;;;20.10;13.53;;;14.20;99.90;;;;;;5029943;28;20231;-61
2022/05/10 02:55:49;;;;;;;24.43;14.13;;;14.20;99.90;;;;;;5032260;28;20197;-61
2022/05/10 02:58:23;;;;;;;27.03;14.43;;;14.20;99.90;;;;;;5029890;28;20203;-62
2022/05/10 03:00:58;;;;;;;26.27;13.47;;;14.20;99.90;;;;;;5009406;28;20272;-62
2022/05/10 03:03:28;;;;;;;24.77;14.03;;;14.20;99.90;;;;;;5011240;28;20236;-61
2022/05/10 03:05:57;;;;;;;24.77;14.07;;;14.20;99.90;;;;;;5029857;28;20192;-62
2022/05/10 03:08:25;;;;;;;21.20;13.07;;;14.20;99.90;;;;;;5027021;28;20205;-62
2022/05/10 03:10:53;;;;;;;24.60;13.73;;;14.20;99.90;;;;;;5031967;28;20204;-61
2022/05/10 03:13:22;;;;;;;26.07;13.63;;;14.20;99.90;;;;;;5040298;28;20197;-62
2022/05/10 03:15:52;;;;;;;23.20;13.03;;;14.20;99.90;;;;;;5037771;28;20566;-62
2022/05/10 03:18:20;;;;;;;22.40;13.03;;;14.30;99.90;;;;;;5028029;28;20233;-61
2022/05/10 03:20:50;;;;;;;23.20;13.47;;;14.30;99.90;;;;;;5041872;28;20209;-62
2022/05/10 03:23:18;;;;;;;24.13;13.10;;;14.40;99.90;;;;;;5016150;28;20217;-62
2022/05/10 03:25:46;;;;;;;22.97;12.87;;;14.40;99.90;;;;;;5029743;28;20194;-62
2022/05/10 03:28:15;;;;;;;22.17;12.37;;;14.50;99.90;;;;;;5027863;28;20213;-61
2022/05/10 03:30:44;;;;;;;21.93;13.17;;;14.50;99.90;;;;;;5026780;28;20674;-61
2022/05/10 03:33:14;;;;;;;23.40;12.97;;;14.50;99.90;;;;;;5012489;28;20543;-62
2022/05/10 03:35:43;;;;;;;20.90;12.80;;;14.50;99.90;;;;;;5028717;28;20198;-61
2022/05/10 03:38:11;;;;;;;23.30;12.70;;;14.50;99.90;;;;;;5029906;28;20198;-62
2022/05/10 03:40:40;;;;;;;18.90;12.37;;;14.50;99.90;;;;;;5027404;28;20205;-62
2022/05/10 03:43:10;;;;;;;17.70;11.43;;;14.50;99.90;;;;;;5027547;28;20670;-62
2022/05/10 03:45:39;;;;;;;21.03;11.80;;;14.50;99.90;;;;;;5030049;28;20201;-61
2022/05/10 03:48:08;;;;;;;21.07;11.63;;;14.60;99.90;;;;;;5028978;28;20205;-61
2022/05/10 03:50:38;;;;;;;20.97;12.20;;;14.60;99.90;;;;;;5029632;28;20205;-61
2022/05/10 03:53:07;;;;;;;21.60;12.93;;;14.60;99.90;;;;;;5030582;28;20186;-61
2022/05/10 03:55:35;;;;;;;18.90;12.63;;;14.60;99.90;;;;;;5032937;28;20213;-61
2022/05/10 03:58:05;;;;;;;18.07;12.13;;;14.60;99.90;;;;;;5037564;28;20193;-62
2022/05/10 04:00:33;;;;;;;17.20;12.33;;;14.60;99.90;;;;;;5028619;28;20193;-61
2022/05/10 04:03:11;;;;;;;19.47;12.40;;;14.60;99.90;;;;;;5031203;28;20217;-61
2022/05/10 04:06:18;;;;;;;18.40;12.30;;;14.60;99.90;;;;;;5037531;28;20199;-61
2022/05/10 04:08:47;;;;;;;20.17;11.70;;;14.60;99.90;;;;;;5010790;28;20214;-62
2022/05/10 04:11:16;;;;;;;24.43;12.70;;;14.60;99.90;;;;;;5011974;28;20189;-61
2022/05/10 04:13:44;;;;;;;19.57;12.30;;;14.50;99.90;;;;;;5048150;28;20675;-62
2022/05/10 04:16:13;;;;;;;20.23;11.67;;;14.50;99.90;;;;;;5033277;28;20275;-61
2022/05/10 04:18:41;;;;;;;21.03;12.40;;;14.40;99.90;;;;;;5034309;28;20225;-61
2022/05/10 04:21:10;;;;;;;24.30;12.50;;;14.40;99.90;;;;;;5028209;28;20580;-61
2022/05/10 04:23:40;;;;;;;21.60;12.23;;;14.50;99.90;;;;;;5011290;28;20217;-62
2022/05/10 04:26:12;;;;;;;18.43;11.83;;;14.50;99.90;;;;;;5030249;28;20193;-62
2022/05/10 04:28:42;;;;;;;19.67;12.17;;;14.40;99.90;;;;;;5013910;28;20285;-61
2022/05/10 04:31:10;;;;;;;19.03;11.40;;;14.50;99.90;;;;;;5014693;28;20706;-61
2022/05/10 04:33:39;;;;;;;13.73;11.43;;;14.50;99.90;;;;;;5031229;28;20277;-62
2022/05/10 04:36:09;;;;;;;21.13;11.23;;;14.50;99.90;;;;;;5031078;28;20405;-63
2022/05/10 04:38:45;;;;;;;19.23;11.87;;;14.60;99.90;;;;;;5028066;28;20217;-61
2022/05/10 04:41:27;;;;;;;15.60;11.93;;;14.60;99.90;;;;;;5044408;28;20276;-61
2022/05/10 04:43:58;;;;;;;18.60;11.73;;;14.60;99.90;;;;;;5010839;28;20213;-62
2022/05/10 04:46:27;;;;;;;15.60;11.53;;;14.70;99.90;;;;;;5029768;28;20276;-62
2022/05/10 04:48:56;;;;;;;16.07;11.90;;;14.70;99.90;;;;;;5030907;28;20197;-62
2022/05/10 04:51:24;;;;;;;20.97;11.93;;;14.80;99.90;;;;;;5029973;28;20220;-62
2022/05/10 04:53:54;;;;;;;18.67;12.23;;;14.80;99.90;;;;;;5028504;28;20185;-62
2022/05/10 04:56:22;;;;;;;16.07;11.70;;;14.80;99.90;;;;;;5027499;28;20193;-61
2022/05/10 04:58:54;;;;;;;20.67;12.17;;;14.90;99.90;;;;;;5026396;28;20554;-62
2022/05/10 05:01:25;;;;;;;20.47;12.17;;;15.00;99.90;;;;;;5023667;28;20719;-62
2022/05/10 05:03:56;;;;;;;14.17;10.93;;;15.00;99.90;;;;;;5028177;28;20215;-62
2022/05/10 05:06:25;;;;;;;18.50;11.83;;;15.00;99.90;;;;;;5026698;28;20205;-62
2022/05/10 05:08:55;;;;;;;16.67;11.00;;;15.00;99.90;;;;;;5009965;28;20235;-62
2022/05/10 05:11:23;;;;;;;18.37;11.10;;;15.10;99.90;;;;;;5028654;28;20197;-62
2022/05/10 05:13:52;;;;;;;20.77;11.40;;;15.10;99.90;;;;;;5027189;28;20273;-61
2022/05/10 05:16:20;;;;;;;17.27;11.87;;;15.20;99.90;;;;;;5010091;28;20613;-62
2022/05/10 05:18:49;;;;;;;16.83;11.13;;;15.30;99.90;;;;;;5028331;28;20229;-62
2022/05/10 05:21:18;;;;;;;19.90;11.00;;;15.30;99.90;;;;;;5034167;28;20280;-62
2022/05/10 05:23:47;;;;;;;15.77;11.30;;;15.40;99.90;;;;;;5028351;28;20228;-61
2022/05/10 05:26:18;;;;;;;16.07;10.37;;;15.40;99.90;;;;;;5023530;28;20201;-61
2022/05/10 05:28:47;;;;;;;11.67;10.33;;;15.50;99.90;;;;;;5033266;28;20205;-61
2022/05/10 05:31:18;;;;;;;16.77;11.10;;;15.60;99.90;;;;;;5033547;28;20207;-61
2022/05/10 05:33:46;;;;;;;18.07;11.20;;;15.70;99.90;;;;;;5030270;28;20199;-63
2022/05/10 05:36:15;;;;;;;14.63;9.83;;;15.90;99.90;;;;;;5035398;28;20287;-62
2022/05/10 05:38:43;;;;;;;13.10;10.30;;;16.00;99.90;;;;;;5030240;28;20585;-62
2022/05/10 05:41:14;;;;;;;14.97;9.73;;;16.10;99.90;;;;;;5014985;28;20226;-62
2022/05/10 05:43:44;;;;;;;12.87;9.83;;;16.30;99.90;;;;;;5032189;28;20221;-62
2022/05/10 05:46:13;;;;;;;12.00;9.73;;;16.30;99.90;;;;;;5033011;28;20194;-63
2022/05/10 05:48:41;;;;;;;14.30;9.87;;;16.30;99.90;;;;;;5033904;28;20543;-62
2022/05/10 05:51:09;;;;;;;13.90;9.33;;;16.40;99.90;;;;;;5032387;28;20235;-62
2022/05/10 05:53:37;;;;;;;14.20;10.47;;;16.40;99.90;;;;;;5039373;28;20276;-62
2022/05/10 05:56:08;;;;;;;16.77;10.10;;;16.50;99.90;;;;;;5032049;28;20185;-62
2022/05/10 05:58:37;;;;;;;14.73;10.50;;;16.50;99.90;;;;;;5032253;28;20233;-62
2022/05/10 06:01:13;;;;;;;14.53;9.57;;;16.60;99.90;;;;;;5012124;28;20198;-62
2022/05/10 06:03:43;;;;;;;14.27;9.27;;;16.60;99.90;;;;;;5031266;28;20224;-62
2022/05/10 06:06:12;;;;;;;15.87;9.53;;;16.70;99.90;;;;;;5031697;28;20252;-62
2022/05/10 06:08:45;;;;;;;18.10;9.63;;;16.80;99.90;;;;;;5042395;28;20780;-62
2022/05/10 06:11:13;;;;;;;11.67;9.03;;;16.90;99.90;;;;;;5021946;28;20281;-62
2022/05/10 06:13:41;;;;;;;16.40;9.57;;;17.00;99.90;;;;;;5044785;28;20229;-62
2022/05/10 06:16:10;;;;;;;13.23;9.47;;;17.10;99.90;;;;;;5034087;28;20212;-62
2022/05/10 06:18:41;;;;;;;10.27;9.00;;;17.10;99.90;;;;;;5038005;28;20238;-61
2022/05/10 06:21:09;;;;;;;14.37;9.80;;;17.30;99.90;;;;;;5036551;28;21108;-62
2022/05/10 06:23:37;;;;;;;11.73;8.30;;;17.40;99.90;;;;;;5049655;28;20217;-62
2022/05/10 06:26:05;;;;;;;12.40;8.93;;;17.40;99.90;;;;;;5050535;28;20639;-62
2022/05/10 06:28:34;;;;;;;10.93;8.93;;;17.50;99.90;;;;;;5017410;28;20214;-62
2022/05/10 06:31:05;;;;;;;10.80;8.80;;;17.70;99.90;;;;;;5034628;28;20274;-61
2022/05/10 06:33:34;;;;;;;9.93;8.37;;;17.80;99.90;;;;;;5035603;28;20197;-62
2022/05/10 06:36:04;;;;;;;11.87;9.00;;;17.80;99.90;;;;;;5016416;28;20287;-62
2022/05/10 06:38:34;;;;;;;10.90;8.70;;;17.90;99.90;;;;;;5030653;28;20631;-62
2022/05/10 06:41:04;;;;;;;11.33;9.07;;;17.90;99.90;;;;;;5013341;28;20200;-63
2022/05/10 06:43:35;;;;;;;11.63;8.80;;;17.90;99.90;;;;;;5032530;28;20196;-63
2022/05/10 06:46:08;;;;;;;10.33;8.43;;;17.90;99.90;;;;;;5043598;28;20218;-61
2022/05/10 06:48:37;;;;;;;19.40;8.70;;;18.10;99.90;;;;;;5026762;28;20223;-62
2022/05/10 06:51:08;;;;;;;16.73;8.87;;;18.20;99.90;;;;;;5037320;28;20207;-62
2022/05/10 06:53:38;;;;;;;10.20;8.97;;;18.10;99.90;;;;;;5029767;28;20228;-62
2022/05/10 06:56:07;;;;;;;12.93;8.73;;;18.20;99.90;;;;;;5026754;28;20272;-62
2022/05/10 06:58:36;;;;;;;9.60;8.40;;;18.30;99.90;;;;;;5032594;28;20198;-62
2022/05/10 07:01:10;;;;;;;11.07;8.47;;;18.30;99.90;;;;;;5015759;28;20196;-61
2022/05/10 07:03:40;;;;;;;10.50;8.57;;;18.50;99.90;;;;;;5026120;28;20208;-62
2022/05/10 07:06:12;;;;;;;12.37;8.80;;;18.80;99.90;;;;;;5024325;28;20197;-62
2022/05/10 07:08:40;;;;;;;12.23;8.60;;;18.80;99.90;;;;;;5029165;28;20271;-62
2022/05/10 07:11:09;;;;;;;14.97;8.57;;;18.80;99.90;;;;;;5014614;28;20205;-62
2022/05/10 07:13:38;;;;;;;14.87;8.57;;;18.80;99.90;;;;;;5028590;28;20824;-62
2022/05/10 07:16:06;;;;;;;16.97;8.67;;;18.70;99.90;;;;;;5009268;28;20189;-62
2022/05/10 07:18:35;;;;;;;10.93;8.40;;;18.70;99.90;;;;;;5031700;28;20245;-62
2022/05/10 07:21:04;;;;;;;9.60;8.17;;;18.80;99.90;;;;;;5012441;28;20216;-62
2022/05/10 07:23:33;;;;;;;9.80;8.67;;;18.70;99.90;;;;;;5028293;28;20303;-62
2022/05/10 07:26:04;;;;;;;9.20;8.30;;;18.80;99.90;;;;;;5043416;28;20218;-62
2022/05/10 07:28:33;;;;;;;13.47;8.47;;;18.90;99.90;;;;;;5034950;28;20194;-62
2022/05/10 07:31:02;;;;;;;13.90;8.40;;;19.00;99.90;;;;;;5027917;28;20333;-62
2022/05/10 07:33:32;;;;;;;10.07;8.33;;;19.10;99.90;;;;;;5038863;28;20189;-62
2022/05/10 07:38:48;;;;;;;11.37;8.90;;;19.20;99.90;;;;;;5029197;28;20201;-62
2022/05/10 07:41:18;;;;;;;13.17;8.43;;;19.40;99.90;;;;;;5028692;28;20722;-62
2022/05/10 07:43:47;;;;;;;13.07;8.20;;;19.50;99.90;;;;;;5029467;28;20198;-62
2022/05/10 07:46:15;;;;;;;9.97;8.00;;;19.70;99.90;;;;;;5028437;28;20312;-62
2022/05/10 07:48:44;;;;;;;9.50;8.63;;;19.60;99.90;;;;;;5029456;28;20247;-62
2022/05/10 07:51:12;;;;;;;16.07;8.37;;;19.60;99.90;;;;;;5032498;28;20603;-62
2022/05/10 07:53:41;;;;;;;9.10;8.10;;;19.80;99.90;;;;;;5027631;28;20202;-62
2022/05/10 07:56:14;;;;;;;12.60;8.30;;;20.10;99.90;;;;;;5030435;28;20186;-62
2022/05/10 07:58:53;;;;;;;12.73;8.60;;;20.20;99.90;;;;;;5030896;28;20677;-62
2022/05/10 08:01:21;;;;;;;13.43;8.40;;;20.20;99.90;;;;;;5021450;28;20202;-62
2022/05/10 08:03:50;;;;;;;9.37;7.70;;;20.20;99.90;;;;;;5013383;28;20217;-62
2022/05/10 08:06:20;;;;;;;15.00;8.57;;;20.40;99.90;;;;;;5027851;28;20228;-62
2022/05/10 08:08:48;;;;;;;12.63;7.77;;;20.40;99.90;;;;;;5022188;28;20194;-62
2022/05/10 08:11:18;;;;;;;10.17;8.13;;;20.60;99.90;;;;;;5046783;28;20193;-62
2022/05/10 08:13:46;;;;;;;13.73;7.87;;;20.60;99.90;;;;;;5029644;28;20552;-62
2022/05/10 08:16:16;;;;;;;9.90;8.00;;;20.70;99.90;;;;;;5010374;28;20194;-62
2022/05/10 08:18:48;;;;;;;8.70;7.90;;;20.80;99.90;;;;;;5026769;28;20316;-62
2022/05/10 08:21:17;;;;;;;11.53;8.17;;;20.90;99.90;;;;;;5028311;28;20228;-62
2022/05/10 08:23:47;;;;;;;9.60;7.73;;;21.10;99.90;;;;;;5028710;28;20723;-62
2022/05/10 08:26:16;;;;;;;16.10;7.90;;;21.60;99.90;;;;;;5027942;28;20300;-62
2022/05/10 08:28:46;;;;;;;11.43;7.63;;;21.70;99.90;;;;;;5025561;28;20200;-62
2022/05/10 08:31:15;;;;;;;11.93;7.97;;;21.90;99.90;;;;;;5027787;28;20263;-62
2022/05/10 08:33:45;;;;;;;9.83;7.80;;;22.20;99.90;;;;;;5025468;28;20584;-62
2022/05/10 08:36:13;;;;;;;12.20;7.70;;;22.30;99.90;;;;;;5033082;28;20211;-60
2022/05/10 08:38:41;;;;;;;8.37;7.23;;;22.40;99.90;;;;;;5036651;28;20189;-61
2022/05/10 08:41:15;;;;;;;11.57;7.47;;;22.60;99.90;;;;;;5037054;28;20681;-62
2022/05/10 08:43:48;;;;;;;8.20;6.83;;;22.70;99.90;;;;;;5029788;28;20204;-62
2022/05/10 08:46:20;;;;;;;10.10;7.03;;;22.90;99.90;;;;;;5028904;28;20229;-62
2022/05/10 08:48:55;;;;;;;10.00;7.30;;;23.20;99.90;;;;;;5026351;28;20538;-62
2022/05/10 08:51:23;;;;;;;9.97;6.63;;;23.40;99.90;;;;;;5029905;28;20190;-62
2022/05/10 08:53:52;;;;;;;7.97;7.07;;;23.40;99.90;;;;;;5026208;28;20220;-62
2022/05/10 08:56:23;;;;;;;8.90;6.70;;;23.30;99.90;;;;;;5010816;28;20213;-62
2022/05/10 08:59:02;;;;;;;13.47;6.97;;;23.10;99.90;;;;;;5032073;28;20215;-62
2022/05/10 09:01:47;;;;;;;9.67;6.90;;;22.90;99.90;;;;;;5032651;28;20195;-62
2022/05/10 09:04:28;;;;;;;9.30;7.17;;;22.80;99.90;;;;;;5008749;28;20210;-62
2022/05/10 09:07:06;;;;;;;9.03;6.90;;;22.80;99.90;;;;;;5033689;28;20629;-62
2022/05/10 09:09:52;;;;;;;9.07;6.50;;;23.20;99.90;;;;;;5028764;28;20277;-62
2022/05/10 09:12:22;;;;;;;9.00;6.60;;;23.40;99.90;;;;;;5036393;28;20213;-62
2022/05/10 09:14:56;;;;;;;8.30;7.10;;;23.70;99.90;;;;;;5025344;28;20241;-62
2022/05/10 09:17:28;;;;;;;7.47;6.77;;;23.80;99.90;;;;;;5015915;28;20221;-62
2022/05/10 09:19:57;;;;;;;9.37;6.50;;;23.90;99.90;;;;;;5028124;28;20286;-61
2022/05/10 09:23:21;;;;;;;11.20;6.90;;;23.90;99.90;;;;;;5026543;28;20200;-61
2022/05/10 09:25:50;;;;;;;8.13;6.40;;;23.90;99.90;;;;;;5020795;28;20225;-62
2022/05/10 09:28:28;;;;;;;8.97;5.93;;;24.30;99.90;;;;;;5018963;28;20581;-62
2022/05/10 09:34:49;;;;;;;9.27;5.50;;;24.90;99.90;;;;;;5022472;28;20560;-61
2022/05/10 09:37:25;;;;;;;6.30;5.70;;;25.40;99.90;;;;;;5021107;28;20193;-62
2022/05/10 09:40:08;;;;;;;7.87;5.57;;;25.40;99.90;;;;;;5024687;28;20213;-62
2022/05/10 09:42:39;;;;;;;7.03;5.67;;;25.30;99.90;;;;;;5020393;28;20220;-62
2022/05/10 09:45:13;;;;;;;5.90;5.33;;;25.60;99.90;;;;;;5026123;28;20217;-62
2022/05/10 09:47:56;;;;;;;9.57;5.50;;;25.80;99.90;;;;;;5024164;28;20205;-63
2022/05/10 09:50:29;;;;;;;11.43;5.60;;;26.20;99.90;;;;;;5009348;28;20202;-62
2022/05/10 09:53:18;;;;;;;7.43;5.80;;;26.40;99.90;;;;;;5022140;28;20218;-62
2022/05/10 09:55:58;;;;;;;7.17;5.73;;;25.70;99.90;;;;;;5021213;28;20536;-62
2022/05/10 09:58:30;;;;;;;6.10;5.60;;;25.30;99.90;;;;;;5030492;28;20201;-62
2022/05/10 10:01:00;;;;;;;6.03;5.33;;;24.90;99.90;;;;;;5016177;28;20646;-62
2022/05/10 10:03:32;;;;;;;8.93;5.80;;;24.90;99.90;;;;;;5024768;28;20749;-62
2022/05/10 10:06:16;;;;;;;6.53;5.83;;;24.60;99.90;;;;;;5039971;28;20675;-62
2022/05/10 10:08:49;;;;;;;6.13;5.53;;;24.30;99.90;;;;;;5007025;28;20220;-62
2022/05/10 10:11:29;;;;;;;5.80;5.20;;;24.60;99.90;;;;;;5041211;28;20204;-62
2022/05/10 10:13:59;;;;;;;7.70;5.63;;;25.20;99.90;;;;;;5026266;28;20259;-62
2022/05/10 10:16:30;;;;;;;4.97;4.57;;;25.40;99.90;;;;;;5023151;28;20254;-62
2022/05/10 10:19:04;;;;;;;5.90;5.50;;;25.20;99.90;;;;;;5024521;28;20320;-63
2022/05/10 10:21:39;;;;;;;6.07;5.50;;;25.00;99.90;;;;;;5031828;28;20195;-62
2022/05/10 10:24:08;;;;;;;5.37;4.97;;;24.80;99.90;;;;;;5034599;28;20235;-62
2022/05/10 10:26:41;;;;;;;7.60;5.27;;;24.50;99.90;;;;;;5011421;28;20220;-62
2022/05/10 10:29:18;;;;;;;6.50;5.50;;;24.60;99.90;;;;;;5027087;28;20696;-62
2022/05/10 10:31:51;;;;;;;10.97;5.53;;;24.80;99.90;;;;;;5025157;28;20201;-62
2022/05/10 10:34:27;;;;;;;7.50;5.60;;;24.60;99.90;;;;;;5027115;28;20254;-62
2022/05/10 10:37:01;;;;;;;9.57;5.50;;;24.70;99.90;;;;;;5028946;28;20199;-62
2022/05/10 10:39:36;;;;;;;9.43;5.73;;;24.80;99.90;;;;;;5025501;28;20221;-62
2022/05/10 10:42:11;;;;;;;6.73;5.50;;;24.90;99.90;;;;;;5017396;28;20195;-62
2022/05/10 10:44:45;;;;;;;6.10;5.50;;;24.90;99.90;;;;;;5029214;28;20252;-61
2022/05/10 10:47:22;;;;;;;9.37;5.77;;;24.90;99.90;;;;;;5011261;28;20215;-62
2022/05/10 10:49:58;;;;;;;6.47;5.20;;;25.10;99.90;;;;;;5026541;28;20222;-62
2022/05/10 10:52:29;;;;;;;11.37;5.53;;;25.40;99.90;;;;;;5033355;28;20222;-62
2022/05/10 10:54:57;;;;;;;11.67;5.80;;;25.60;99.90;;;;;;5012792;28;20284;-62
2022/05/10 10:58:00;;;;;;;7.17;5.17;;;25.30;99.90;;;;;;5033119;28;20651;-62
2022/05/10 11:00:36;;;;;;;6.17;5.57;;;25.00;99.90;;;;;;5003211;28;20244;-62
2022/05/10 11:03:15;;;;;;;8.37;5.40;;;25.00;99.90;;;;;;5027540;28;20216;-62
2022/05/10 11:06:15;;;;;;;10.77;5.17;;;25.30;99.90;;;;;;5028805;28;20209;-61
2022/05/10 11:09:04;;;;;;;6.40;4.53;;;25.60;99.90;;;;;;5046533;28;20206;-62
2022/05/10 11:11:47;;;;;;;6.17;5.30;;;26.40;99.90;;;;;;5013214;28;20308;-62
2022/05/10 11:14:30;;;;;;;7.10;5.10;;;26.70;99.90;;;;;;5017907;28;20268;-62
2022/05/10 11:17:08;;;;;;;10.70;4.90;;;27.10;99.90;;;;;;5037606;28;20202;-62
2022/05/10 11:19:51;;;;;;;5.47;4.60;;;27.00;99.90;;;;;;5036983;28;20804;-63
2022/05/10 11:22:34;;;;;;;9.33;4.53;;;26.70;99.90;;;;;;5028106;28;20215;-62
2022/05/10 11:25:13;;;;;;;6.57;4.40;;;26.40;99.90;;;;;;5037266;28;20676;-62
2022/05/10 11:28:02;;;;;;;4.50;4.10;;;26.20;99.90;;;;;;5012789;28;20750;-62
2022/05/10 11:30:40;;;;;;;8.77;4.10;;;26.00;99.90;;;;;;5022108;28;20251;-62
2022/05/10 11:33:27;;;;;;;5.17;3.60;;;25.90;99.90;;;;;;5049268;28;20243;-62
2022/05/10 11:36:02;;;;;;;8.03;3.90;;;25.80;99.90;;;;;;5030457;28;20249;-62
2022/05/10 11:38:59;;;;;;;10.27;3.90;;;25.50;99.90;;;;;;5031338;28;20203;-62
2022/05/10 11:41:35;;;;;;;6.13;3.70;;;25.40;99.90;;;;;;5013241;28;20220;-62
2022/05/10 11:44:22;;;;;;;8.37;4.50;;;25.50;99.90;;;;;;5027402;28;20232;-62
2022/05/10 11:47:19;;;;;;;5.07;4.13;;;25.50;99.90;;;;;;4992987;28;20229;-62
2022/05/10 11:50:31;;;;;;;4.73;4.20;;;25.40;99.90;;;;;;5030606;28;20211;-62
2022/05/10 11:53:38;;;;;;;5.07;4.13;;;25.20;99.90;;;;;;5040225;28;20208;-62
2022/05/10 11:56:11;;;;;;;6.13;4.33;;;25.20;99.90;;;;;;5001013;28;20667;-62
2022/05/10 11:58:40;;;;;;;4.40;3.87;;;25.10;99.90;;;;;;5014190;28;20200;-62
2022/05/10 12:01:12;;;;;;;6.80;3.80;;;25.20;99.90;;;;;;5023200;28;20286;-62
2022/05/10 12:03:55;;;;;;;7.63;3.77;;;25.10;99.90;;;;;;5034427;28;20199;-62
2022/05/10 12:06:38;;;;;;;4.57;3.30;;;25.20;99.90;;;;;;5010624;28;20752;-61
2022/05/10 12:09:17;;;;;;;4.47;3.20;;;25.20;99.90;;;;;;5009664;28;20255;-62
2022/05/10 12:11:48;;;;;;;4.90;3.10;;;25.20;99.90;;;;;;5018207;28;20197;-62
2022/05/10 12:24:06;;;;;;;8.73;3.30;;;25.00;99.90;;;;;;5021290;28;20287;-62
2022/05/10 12:26:43;;;;;;;5.17;3.50;;;25.00;99.90;;;;;;5024838;28;20202;-66
2022/05/10 12:29:56;;;;;;;5.53;3.60;;;24.90;99.90;;;;;;5011437;28;20289;-62
2022/05/10 12:32:43;;;;;;;3.73;3.40;;;25.00;99.90;;;;;;5032229;28;20625;-61
2022/05/10 12:35:18;;;;;;;7.13;3.40;;;25.00;99.90;;;;;;5029378;28;20253;-66
2022/05/10 12:37:59;;;;;;;5.77;3.70;;;25.00;99.90;;;;;;5033431;28;20218;-63
2022/05/10 12:40:54;;;;;;;5.13;3.83;;;25.00;99.90;;;;;;5041461;28;20194;-63
2022/05/10 12:43:49;;;;;;;13.23;4.30;;;25.30;99.90;;;;;;5030182;28;20207;-63
2022/05/10 12:46:38;;;;;;;9.33;3.40;;;25.70;99.90;;;;;;5029166;28;20192;-62
2022/05/10 12:49:24;;;;;;;4.67;3.43;;;25.90;99.90;;;;;;5034549;28;20285;-62
2022/05/10 12:52:13;;;;;;;3.63;3.10;;;25.80;99.90;;;;;;5028864;28;20901;-63
2022/05/10 12:54:43;;;;;;;5.77;3.40;;;25.80;99.90;;;;;;5030273;28;20552;-62
2022/05/10 12:57:17;;;;;;;10.97;3.43;;;25.60;99.90;;;;;;5029344;28;20200;-62
2022/05/10 12:59:57;;;;;;;9.00;2.87;;;25.30;99.90;;;;;;5034478;28;20641;-62
2022/05/10 13:02:30;;;;;;;3.77;3.33;;;25.30;99.90;;;;;;5032872;28;20259;-62
2022/05/10 13:05:05;;;;;;;3.73;3.40;;;25.30;99.90;;;;;;5026594;28;20196;-62
2022/05/10 13:08:01;;;;;;;4.93;3.27;;;25.50;99.90;;;;;;5010256;28;20226;-62
2022/05/10 13:10:31;;;;;;;7.13;3.50;;;25.50;99.90;;;;;;5021605;28;20217;-62
2022/05/10 13:13:03;;;;;;;3.33;3.13;;;25.00;99.90;;;;;;5027849;28;20208;-62
2022/05/10 13:15:31;;;;;;;6.50;3.30;;;24.80;99.90;;;;;;5034348;28;20669;-62
2022/05/10 13:18:01;;;;;;;3.17;2.70;;;24.70;99.90;;;;;;5025702;28;20235;-62
2022/05/10 13:20:32;;;;;;;5.03;3.33;;;24.80;99.90;;;;;;5007378;28;20207;-62
2022/05/10 13:23:02;;;;;;;4.40;3.00;;;24.80;99.90;;;;;;5026362;28;20210;-62
2022/05/10 13:25:33;;;;;;;6.67;3.10;;;25.00;99.90;;;;;;5029886;28;20203;-62